Mid Delta Regional Airport Greenville US
ICAO: KGLH
IATA: GLH
Category: Medium
Scheduled Services: Yes

Elevation: 131 ft
TransAlt. 18000 ft.

Airport Communications:
ASOS:125.525
MEMPHIS CNTR:135.875
CTAF:119
GND:121.8
GREENVILLE TWR:119
UNICOM:122.95

KGLH Zoom In..

If you have problems with the map follow the link
https://www.worldairports.se/pages/airport.php?
ICAO=KGLH

Runways:

(A) RW 18L length 8001 ft width 150 ft
ILS 109.10 / hdg 177

(B) RW 18R length 7019 ft width 150 ft
---- / hdg 177

(C) RW 36L length 7019 ft width 150 ft
---- / hdg 357

(D) RW 36R length 8001 ft width 150 ft
---- / hdg 357

Location; KGLH
Day. 18 / Time. 06.53 Zulu
* Altimeter: 30.35
* Temperature: 14° c. 57.2°f.
* Wind from: 030° Speed 08 kn.
Dewpoint: 09° c.
Visibility: 10 Statute Miles.
Clouds: Clear (automated report).

KGLH 180653Z AUTO 03008KT 10SM CLR 14/09 A3035 RMK AO2 SLP285 T01390089 $


Wind From 030°
Speed 08 kn.

 
 
jpsmedia.com for Web Design worldairports.se 2018   terms of use